Tuesday, April 24, 2018, 4:18 AM EDT
Back to Local

KIZG, Fryeburg Eastern Slopes Rgnl

Location: Fryeburg, ME, United States Lat: 43.983
Local Time: 4:18 AM EDT ( 8:18 GMT) Lon: -70.95
Time Zone: US/Eastern Elev: 452 ft

Show me the last for .
Show Decoded

2018-04-24 03:54 METAR KIZG 240754Z AUTO 00000KT 10SM CLR M01/M03 A3034 RMK AO2 SLP277 T10061028
                 =
2018-04-24 02:54 METAR KIZG 240654Z AUTO 00000KT 10SM CLR 00/M02 A3034 RMK AO2 SLP278 T00001022 =
2018-04-24 01:54 METAR KIZG 240554Z AUTO 00000KT 10SM CLR 01/M03 A3035 RMK AO2 SLP280 T00111028
                 10139 20006 58007 =
2018-04-24 00:54 METAR KIZG 240454Z AUTO 00000KT 10SM CLR 01/M02 A3036 RMK AO2 SLP283 T00111022
                 402001056 =
2018-04-23 23:54 METAR KIZG 240354Z AUTO 00000KT 10SM CLR 05/M03 A3037 RMK AO2 SLP286 T00501033 =
2018-04-23 22:54 METAR KIZG 240254Z AUTO 21005KT 10SM CLR 06/M03 A3037 RMK AO2 SLP287 T00561033
                 50009 =
2018-04-23 21:54 METAR KIZG 240154Z AUTO 18007KT 10SM CLR 11/M06 A3038 RMK AO2 SLP290 T01061056 =
2018-04-23 20:54 METAR KIZG 240054Z AUTO 18008G15KT 10SM CLR 12/M06 A3037 RMK AO2 SLP286
                 T01171061 =
2018-04-23 19:54 METAR KIZG 232354Z AUTO 17007KT 10SM CLR 14/M06 A3034 RMK AO2 SLP278 T01391056
                 10200 20139 55001 =
2018-04-23 18:54 METAR KIZG 232254Z AUTO 17006KT 10SM CLR 17/M10 A3033 RMK AO2 SLP275 T01721100 =
2018-04-23 17:54 METAR KIZG 232154Z AUTO VRB04KT 10SM CLR 18/M10 A3034 RMK AO2 SLP277 T01831100 =
2018-04-23 16:54 METAR KIZG 232054Z AUTO 17007KT 10SM CLR 19/M10 A3035 RMK AO2 SLP280 T01891100
                 56019 =
2018-04-23 15:54 METAR KIZG 231954Z AUTO VRB03KT 10SM CLR 19/M11 A3036 RMK AO2 SLP284 T01891106 =
2018-04-23 14:54 METAR KIZG 231854Z AUTO VRB04KT 10SM CLR 19/M10 A3038 RMK AO2 SLP291 T01941100 =
2018-04-23 13:54 METAR KIZG 231754Z AUTO VRB04KT 10SM CLR 18/M09 A3040 RMK AO2 SLP299 T01831094
                 10183 20039 58022 =
2018-04-23 12:54 METAR KIZG 231654Z AUTO 10004KT 10SM CLR 17/M10 A3043 RMK AO2 SLP308 T01671100 =
2018-04-23 11:54 METAR KIZG 231554Z AUTO 02007KT 10SM CLR 15/M11 A3045 RMK AO2 SLP315 T01501106 =
2018-04-23 10:54 METAR KIZG 231454Z AUTO VRB05KT 10SM CLR 14/M09 A3047 RMK AO2 SLP321 T01441089
                 58004 =
2018-04-23 09:54 METAR KIZG 231354Z AUTO 00000KT 10SM CLR 13/M08 A3048 RMK AO2 SLP326 T01281078 =
2018-04-23 08:54 METAR KIZG 231254Z AUTO 29004KT 10SM CLR 09/M06 A3049 RMK AO2 SLP329 T00941056 =
2018-04-23 07:54 METAR KIZG 231154Z AUTO 00000KT 10SM CLR 04/M02 A3048 RMK AO2 SLP325 I6000
                 T00391017 10039 21056 52018 =
2018-04-23 06:54 METAR KIZG 231054Z AUTO 00000KT 10SM CLR M02/M03 A3046 RMK AO2 SLP320 I1000
                 T10221033 =
2018-04-23 05:54 METAR KIZG 230954Z AUTO 00000KT 10SM CLR M06/M06 A3044 RMK AO2 SLP314 I1000
                 T10561056 =
2018-04-23 04:54 METAR KIZG 230854Z AUTO 00000KT 10SM CLR M05/M05 A3042 RMK AO2 SLP308 I1000
                 I3000 T10501050 53005 =

Support USWX by starting your Amazon purchase here.